sensor_id;sensor_type;location;lat;lon;timestamp;P1;durP1;ratioP1;P2;durP2;ratioP2
68947;SDS011;55996;49.546;7.400;2022-11-15T00:00:03;10.77;;;8.63;;
68947;SDS011;55996;49.546;7.400;2022-11-15T00:02:29;11.20;;;9.00;;
68947;SDS011;55996;49.546;7.400;2022-11-15T00:04:54;10.53;;;9.27;;
68947;SDS011;55996;49.546;7.400;2022-11-15T00:07:20;9.67;;;8.67;;
68947;SDS011;55996;49.546;7.400;2022-11-15T00:09:45;10.53;;;8.67;;
68947;SDS011;55996;49.546;7.400;2022-11-15T00:12:10;9.30;;;8.33;;
68947;SDS011;55996;49.546;7.400;2022-11-15T00:14:36;10.40;;;8.47;;
68947;SDS011;55996;49.546;7.400;2022-11-15T00:17:01;11.43;;;8.33;;
68947;SDS011;55996;49.546;7.400;2022-11-15T00:19:27;11.97;;;8.83;;
68947;SDS011;55996;49.546;7.400;2022-11-15T00:21:52;10.17;;;8.33;;
68947;SDS011;55996;49.546;7.400;2022-11-15T00:24:17;10.50;;;7.80;;
68947;SDS011;55996;49.546;7.400;2022-11-15T00:26:43;8.87;;;7.97;;
68947;SDS011;55996;49.546;7.400;2022-11-15T00:29:08;8.20;;;7.27;;
68947;SDS011;55996;49.546;7.400;2022-11-15T00:31:33;12.33;;;7.40;;
68947;SDS011;55996;49.546;7.400;2022-11-15T00:33:59;9.60;;;7.63;;
68947;SDS011;55996;49.546;7.400;2022-11-15T00:36:24;10.27;;;7.50;;
68947;SDS011;55996;49.546;7.400;2022-11-15T00:38:49;10.30;;;7.20;;
68947;SDS011;55996;49.546;7.400;2022-11-15T00:41:15;9.00;;;7.47;;
68947;SDS011;55996;49.546;7.400;2022-11-15T00:43:40;7.83;;;6.20;;
68947;SDS011;55996;49.546;7.400;2022-11-15T00:46:08;8.73;;;7.10;;
68947;SDS011;55996;49.546;7.400;2022-11-15T00:48:34;9.63;;;6.57;;
68947;SDS011;55996;49.546;7.400;2022-11-15T00:51:00;7.83;;;6.43;;
68947;SDS011;55996;49.546;7.400;2022-11-15T00:53:25;9.63;;;6.90;;
68947;SDS011;55996;49.546;7.400;2022-11-15T00:55:51;8.10;;;6.50;;
68947;SDS011;55996;49.546;7.400;2022-11-15T00:58:17;8.37;;;7.07;;
68947;SDS011;55996;49.546;7.400;2022-11-15T01:00:43;6.50;;;5.87;;
68947;SDS011;55996;49.546;7.400;2022-11-15T01:03:08;5.23;;;4.73;;
68947;SDS011;55996;49.546;7.400;2022-11-15T01:05:33;7.73;;;5.90;;
68947;SDS011;55996;49.546;7.400;2022-11-15T01:08:01;7.30;;;6.33;;
68947;SDS011;55996;49.546;7.400;2022-11-15T01:10:27;9.17;;;6.20;;
68947;SDS011;55996;49.546;7.400;2022-11-15T01:12:52;10.73;;;6.00;;
68947;SDS011;55996;49.546;7.400;2022-11-15T01:15:17;7.50;;;5.90;;
68947;SDS011;55996;49.546;7.400;2022-11-15T01:17:43;6.43;;;5.80;;
68947;SDS011;55996;49.546;7.400;2022-11-15T01:20:08;6.90;;;6.23;;
68947;SDS011;55996;49.546;7.400;2022-11-15T01:22:34;6.43;;;5.70;;
68947;SDS011;55996;49.546;7.400;2022-11-15T01:25:00;6.20;;;5.53;;
68947;SDS011;55996;49.546;7.400;2022-11-15T01:27:25;6.80;;;5.67;;
68947;SDS011;55996;49.546;7.400;2022-11-15T01:29:50;5.67;;;5.00;;
68947;SDS011;55996;49.546;7.400;2022-11-15T01:32:16;7.07;;;5.87;;
68947;SDS011;55996;49.546;7.400;2022-11-15T01:34:41;7.93;;;5.70;;
68947;SDS011;55996;49.546;7.400;2022-11-15T01:37:07;6.27;;;5.07;;
68947;SDS011;55996;49.546;7.400;2022-11-15T01:39:32;7.13;;;5.40;;
68947;SDS011;55996;49.546;7.400;2022-11-15T01:41:58;8.47;;;5.70;;
68947;SDS011;55996;49.546;7.400;2022-11-15T01:44:43;7.90;;;5.10;;
68947;SDS011;55996;49.546;7.400;2022-11-15T01:50:05;6.47;;;5.67;;
68947;SDS011;55996;49.546;7.400;2022-11-15T01:52:37;8.57;;;5.33;;
68947;SDS011;55996;49.546;7.400;2022-11-15T01:57:34;6.93;;;5.50;;
68947;SDS011;55996;49.546;7.400;2022-11-15T02:00:06;7.07;;;5.30;;
68947;SDS011;55996;49.546;7.400;2022-11-15T02:02:33;6.43;;;5.27;;
68947;SDS011;55996;49.546;7.400;2022-11-15T02:08:08;7.03;;;5.90;;
68947;SDS011;55996;49.546;7.400;2022-11-15T02:11:04;6.63;;;5.30;;
68947;SDS011;55996;49.546;7.400;2022-11-15T02:14:11;6.10;;;5.33;;
68947;SDS011;55996;49.546;7.400;2022-11-15T02:43:59;6.70;;;4.50;;
68947;SDS011;55996;49.546;7.400;2022-11-15T02:46:56;5.27;;;4.77;;
68947;SDS011;55996;49.546;7.400;2022-11-15T02:50:02;5.43;;;4.93;;
68947;SDS011;55996;49.546;7.400;2022-11-15T02:52:48;5.43;;;4.93;;
68947;SDS011;55996;49.546;7.400;2022-11-15T03:23:05;5.07;;;4.67;;
68947;SDS011;55996;49.546;7.400;2022-11-15T03:26:01;5.17;;;4.20;;
68947;SDS011;55996;49.546;7.400;2022-11-15T03:31:55;4.93;;;4.37;;
68947;SDS011;55996;49.546;7.400;2022-11-15T03:47:53;6.13;;;4.57;;
68947;SDS011;55996;49.546;7.400;2022-11-15T04:01:32;7.63;;;5.53;;
68947;SDS011;55996;49.546;7.400;2022-11-15T04:04:06;5.63;;;4.97;;
68947;SDS011;55996;49.546;7.400;2022-11-15T04:06:49;6.27;;;5.67;;
68947;SDS011;55996;49.546;7.400;2022-11-15T04:09:18;5.97;;;5.37;;
68947;SDS011;55996;49.546;7.400;2022-11-15T04:11:43;6.50;;;5.20;;
68947;SDS011;55996;49.546;7.400;2022-11-15T04:14:08;6.83;;;5.23;;
68947;SDS011;55996;49.546;7.400;2022-11-15T04:16:43;6.73;;;5.40;;
68947;SDS011;55996;49.546;7.400;2022-11-15T04:19:15;6.37;;;4.73;;
68947;SDS011;55996;49.546;7.400;2022-11-15T04:22:07;7.37;;;5.03;;
68947;SDS011;55996;49.546;7.400;2022-11-15T04:33:47;5.70;;;5.20;;
68947;SDS011;55996;49.546;7.400;2022-11-15T04:36:15;5.63;;;4.77;;
68947;SDS011;55996;49.546;7.400;2022-11-15T04:39:08;6.43;;;5.10;;
68947;SDS011;55996;49.546;7.400;2022-11-15T04:41:34;7.80;;;4.37;;
68947;SDS011;55996;49.546;7.400;2022-11-15T04:44:05;5.63;;;5.00;;
68947;SDS011;55996;49.546;7.400;2022-11-15T04:46:31;6.47;;;5.87;;
68947;SDS011;55996;49.546;7.400;2022-11-15T04:49:02;7.07;;;5.67;;
68947;SDS011;55996;49.546;7.400;2022-11-15T04:51:43;8.20;;;6.00;;
68947;SDS011;55996;49.546;7.400;2022-11-15T04:54:14;7.40;;;6.03;;
68947;SDS011;55996;49.546;7.400;2022-11-15T04:56:55;6.70;;;5.77;;
68947;SDS011;55996;49.546;7.400;2022-11-15T04:59:32;5.80;;;5.23;;
68947;SDS011;55996;49.546;7.400;2022-11-15T05:02:13;6.10;;;5.10;;
68947;SDS011;55996;49.546;7.400;2022-11-15T05:07:47;6.33;;;5.43;;
68947;SDS011;55996;49.546;7.400;2022-11-15T05:10:16;8.23;;;6.00;;
68947;SDS011;55996;49.546;7.400;2022-11-15T05:12:46;6.53;;;4.80;;
68947;SDS011;55996;49.546;7.400;2022-11-15T05:15:17;5.97;;;5.40;;
68947;SDS011;55996;49.546;7.400;2022-11-15T05:17:56;6.30;;;4.83;;
68947;SDS011;55996;49.546;7.400;2022-11-15T05:20:34;5.27;;;4.77;;
68947;SDS011;55996;49.546;7.400;2022-11-15T05:22:59;5.90;;;5.30;;
68947;SDS011;55996;49.546;7.400;2022-11-15T05:28:55;5.97;;;5.47;;
68947;SDS011;55996;49.546;7.400;2022-11-15T05:34:35;5.43;;;4.90;;
68947;SDS011;55996;49.546;7.400;2022-11-15T05:37:06;5.37;;;4.87;;
68947;SDS011;55996;49.546;7.400;2022-11-15T05:53:38;6.43;;;5.70;;
68947;SDS011;55996;49.546;7.400;2022-11-15T05:56:06;6.00;;;5.50;;
68947;SDS011;55996;49.546;7.400;2022-11-15T05:59:04;5.77;;;5.27;;
68947;SDS011;55996;49.546;7.400;2022-11-15T06:04:28;6.43;;;5.30;;
68947;SDS011;55996;49.546;7.400;2022-11-15T06:06:57;13.37;;;5.07;;
68947;SDS011;55996;49.546;7.400;2022-11-15T06:12:55;8.20;;;5.50;;
68947;SDS011;55996;49.546;7.400;2022-11-15T06:15:22;6.30;;;5.13;;
68947;SDS011;55996;49.546;7.400;2022-11-15T06:23:22;6.27;;;4.90;;
68947;SDS011;55996;49.546;7.400;2022-11-15T06:25:47;6.27;;;4.97;;
68947;SDS011;55996;49.546;7.400;2022-11-15T06:28:13;5.80;;;5.13;;
68947;SDS011;55996;49.546;7.400;2022-11-15T06:30:38;7.87;;;5.10;;
68947;SDS011;55996;49.546;7.400;2022-11-15T06:33:04;5.47;;;4.87;;
68947;SDS011;55996;49.546;7.400;2022-11-15T06:35:33;6.37;;;5.27;;
68947;SDS011;55996;49.546;7.400;2022-11-15T06:38:07;5.90;;;5.30;;
68947;SDS011;55996;49.546;7.400;2022-11-15T06:40:34;6.90;;;5.87;;
68947;SDS011;55996;49.546;7.400;2022-11-15T06:43:00;5.27;;;4.77;;
68947;SDS011;55996;49.546;7.400;2022-11-15T06:45:26;7.33;;;5.57;;
68947;SDS011;55996;49.546;7.400;2022-11-15T06:47:52;6.83;;;5.80;;
68947;SDS011;55996;49.546;7.400;2022-11-15T06:50:17;6.07;;;5.47;;
68947;SDS011;55996;49.546;7.400;2022-11-15T06:52:43;5.67;;;5.03;;
68947;SDS011;55996;49.546;7.400;2022-11-15T06:55:08;5.47;;;4.90;;
68947;SDS011;55996;49.546;7.400;2022-11-15T06:57:34;5.30;;;4.80;;
68947;SDS011;55996;49.546;7.400;2022-11-15T07:00:00;7.13;;;4.73;;
68947;SDS011;55996;49.546;7.400;2022-11-15T07:02:26;7.10;;;5.17;;
68947;SDS011;55996;49.546;7.400;2022-11-15T07:04:51;5.20;;;4.70;;
68947;SDS011;55996;49.546;7.400;2022-11-15T07:07:17;5.67;;;4.57;;
68947;SDS011;55996;49.546;7.400;2022-11-15T07:09:42;6.20;;;4.67;;
68947;SDS011;55996;49.546;7.400;2022-11-15T07:12:08;8.10;;;4.60;;
68947;SDS011;55996;49.546;7.400;2022-11-15T07:14:33;4.70;;;4.30;;
68947;SDS011;55996;49.546;7.400;2022-11-15T07:16:59;6.77;;;5.17;;
68947;SDS011;55996;49.546;7.400;2022-11-15T07:19:24;5.53;;;5.03;;
68947;SDS011;55996;49.546;7.400;2022-11-15T07:21:50;6.50;;;5.20;;
68947;SDS011;55996;49.546;7.400;2022-11-15T07:24:15;5.30;;;4.80;;
68947;SDS011;55996;49.546;7.400;2022-11-15T07:26:41;6.20;;;5.53;;
68947;SDS011;55996;49.546;7.400;2022-11-15T07:29:06;5.97;;;5.37;;
68947;SDS011;55996;49.546;7.400;2022-11-15T07:31:31;6.00;;;5.50;;
68947;SDS011;55996;49.546;7.400;2022-11-15T07:33:57;5.50;;;4.87;;
68947;SDS011;55996;49.546;7.400;2022-11-15T07:36:22;8.00;;;4.67;;
68947;SDS011;55996;49.546;7.400;2022-11-15T07:38:47;6.30;;;4.37;;
68947;SDS011;55996;49.546;7.400;2022-11-15T07:41:13;7.17;;;4.80;;
68947;SDS011;55996;49.546;7.400;2022-11-15T07:43:39;7.47;;;5.10;;
68947;SDS011;55996;49.546;7.400;2022-11-15T07:46:07;5.37;;;4.70;;
68947;SDS011;55996;49.546;7.400;2022-11-15T07:48:34;5.37;;;4.67;;
68947;SDS011;55996;49.546;7.400;2022-11-15T07:51:05;5.47;;;4.97;;
68947;SDS011;55996;49.546;7.400;2022-11-15T07:53:31;7.67;;;5.20;;
68947;SDS011;55996;49.546;7.400;2022-11-15T07:55:56;5.20;;;4.70;;
68947;SDS011;55996;49.546;7.400;2022-11-15T07:58:21;5.47;;;4.97;;
68947;SDS011;55996;49.546;7.400;2022-11-15T08:00:47;5.53;;;4.90;;
68947;SDS011;55996;49.546;7.400;2022-11-15T08:03:14;5.03;;;4.53;;
68947;SDS011;55996;49.546;7.400;2022-11-15T08:05:41;4.50;;;4.10;;
68947;SDS011;55996;49.546;7.400;2022-11-15T08:08:08;4.90;;;4.40;;
68947;SDS011;55996;49.546;7.400;2022-11-15T08:10:35;6.20;;;5.70;;
68947;SDS011;55996;49.546;7.400;2022-11-15T08:13:02;5.20;;;4.70;;
68947;SDS011;55996;49.546;7.400;2022-11-15T08:15:30;5.27;;;4.53;;
68947;SDS011;55996;49.546;7.400;2022-11-15T08:17:56;5.00;;;4.20;;
68947;SDS011;55996;49.546;7.400;2022-11-15T08:20:23;5.10;;;4.70;;
68947;SDS011;55996;49.546;7.400;2022-11-15T08:22:49;6.03;;;4.60;;
68947;SDS011;55996;49.546;7.400;2022-11-15T08:25:15;4.83;;;4.33;;
68947;SDS011;55996;49.546;7.400;2022-11-15T08:27:41;5.53;;;4.77;;
68947;SDS011;55996;49.546;7.400;2022-11-15T08:30:06;6.60;;;5.90;;
68947;SDS011;55996;49.546;7.400;2022-11-15T08:32:32;5.23;;;4.73;;
68947;SDS011;55996;49.546;7.400;2022-11-15T08:34:58;5.73;;;4.33;;
68947;SDS011;55996;49.546;7.400;2022-11-15T08:37:23;6.70;;;4.47;;
68947;SDS011;55996;49.546;7.400;2022-11-15T08:39:48;5.07;;;4.67;;
68947;SDS011;55996;49.546;7.400;2022-11-15T08:42:14;4.70;;;4.20;;
68947;SDS011;55996;49.546;7.400;2022-11-15T08:44:41;5.80;;;5.00;;
68947;SDS011;55996;49.546;7.400;2022-11-15T08:47:06;6.23;;;5.53;;
68947;SDS011;55996;49.546;7.400;2022-11-15T08:49:32;6.30;;;4.23;;
68947;SDS011;55996;49.546;7.400;2022-11-15T08:51:57;6.23;;;4.63;;
68947;SDS011;55996;49.546;7.400;2022-11-15T08:54:22;4.97;;;4.53;;
68947;SDS011;55996;49.546;7.400;2022-11-15T08:56:48;5.17;;;4.30;;
68947;SDS011;55996;49.546;7.400;2022-11-15T08:59:13;7.57;;;4.87;;
68947;SDS011;55996;49.546;7.400;2022-11-15T09:01:39;5.43;;;4.93;;
68947;SDS011;55996;49.546;7.400;2022-11-15T09:04:04;5.87;;;4.83;;
68947;SDS011;55996;49.546;7.400;2022-11-15T09:06:30;6.20;;;5.60;;
68947;SDS011;55996;49.546;7.400;2022-11-15T09:08:56;5.60;;;4.93;;
68947;SDS011;55996;49.546;7.400;2022-11-15T09:11:22;6.87;;;4.80;;
68947;SDS011;55996;49.546;7.400;2022-11-15T09:13:48;6.10;;;4.80;;
68947;SDS011;55996;49.546;7.400;2022-11-15T09:16:14;5.10;;;4.50;;
68947;SDS011;55996;49.546;7.400;2022-11-15T09:18:40;5.23;;;4.83;;
68947;SDS011;55996;49.546;7.400;2022-11-15T09:21:07;5.70;;;4.60;;
68947;SDS011;55996;49.546;7.400;2022-11-15T09:23:33;4.93;;;4.40;;
68947;SDS011;55996;49.546;7.400;2022-11-15T09:26:00;5.37;;;4.70;;
68947;SDS011;55996;49.546;7.400;2022-11-15T09:28:27;8.13;;;4.80;;
68947;SDS011;55996;49.546;7.400;2022-11-15T09:31:00;6.63;;;4.67;;
68947;SDS011;55996;49.546;7.400;2022-11-15T09:33:27;5.30;;;4.37;;
68947;SDS011;55996;49.546;7.400;2022-11-15T09:35:53;4.20;;;3.70;;
68947;SDS011;55996;49.546;7.400;2022-11-15T09:38:19;4.77;;;3.47;;
68947;SDS011;55996;49.546;7.400;2022-11-15T09:40:44;3.60;;;3.30;;
68947;SDS011;55996;49.546;7.400;2022-11-15T09:45:55;4.20;;;3.80;;
68947;SDS011;55996;49.546;7.400;2022-11-15T09:48:37;4.73;;;3.73;;
68947;SDS011;55996;49.546;7.400;2022-11-15T09:56:43;3.83;;;3.10;;
68947;SDS011;55996;49.546;7.400;2022-11-15T09:59:22;3.93;;;3.30;;
68947;SDS011;55996;49.546;7.400;2022-11-15T10:04:52;3.00;;;2.77;;
68947;SDS011;55996;49.546;7.400;2022-11-15T10:07:21;6.03;;;2.80;;
68947;SDS011;55996;49.546;7.400;2022-11-15T10:10:27;3.50;;;2.67;;
68947;SDS011;55996;49.546;7.400;2022-11-15T10:12:54;6.30;;;3.50;;
68947;SDS011;55996;49.546;7.400;2022-11-15T10:15:20;5.13;;;3.83;;
68947;SDS011;55996;49.546;7.400;2022-11-15T10:20:31;4.80;;;3.20;;
68947;SDS011;55996;49.546;7.400;2022-11-15T10:23:10;4.07;;;3.20;;
68947;SDS011;55996;49.546;7.400;2022-11-15T10:25:38;3.57;;;3.17;;
68947;SDS011;55996;49.546;7.400;2022-11-15T10:28:17;4.00;;;3.60;;
68947;SDS011;55996;49.546;7.400;2022-11-15T10:30:50;4.70;;;3.57;;
68947;SDS011;55996;49.546;7.400;2022-11-15T10:33:37;3.40;;;3.10;;
68947;SDS011;55996;49.546;7.400;2022-11-15T10:41:13;3.57;;;3.27;;
68947;SDS011;55996;49.546;7.400;2022-11-15T10:43:39;3.63;;;3.13;;
68947;SDS011;55996;49.546;7.400;2022-11-15T10:51:51;2.80;;;2.60;;
68947;SDS011;55996;49.546;7.400;2022-11-15T10:56:58;3.93;;;3.47;;
68947;SDS011;55996;49.546;7.400;2022-11-15T10:59:26;3.07;;;2.70;;
68947;SDS011;55996;49.546;7.400;2022-11-15T11:01:54;6.73;;;3.30;;
68947;SDS011;55996;49.546;7.400;2022-11-15T11:04:20;4.03;;;3.37;;
68947;SDS011;55996;49.546;7.400;2022-11-15T11:06:50;3.87;;;3.17;;
68947;SDS011;55996;49.546;7.400;2022-11-15T11:11:51;3.57;;;3.03;;
68947;SDS011;55996;49.546;7.400;2022-11-15T11:14:20;3.93;;;2.57;;
68947;SDS011;55996;49.546;7.400;2022-11-15T11:16:48;3.67;;;2.23;;
68947;SDS011;55996;49.546;7.400;2022-11-15T11:24:45;2.90;;;2.60;;
68947;SDS011;55996;49.546;7.400;2022-11-15T11:48:43;2.10;;;1.93;;
68947;SDS011;55996;49.546;7.400;2022-11-15T11:51:23;1.63;;;1.53;;
68947;SDS011;55996;49.546;7.400;2022-11-15T11:56:47;5.40;;;2.30;;
68947;SDS011;55996;49.546;7.400;2022-11-15T11:59:23;3.13;;;2.20;;
68947;SDS011;55996;49.546;7.400;2022-11-15T12:01:57;1.93;;;1.70;;
68947;SDS011;55996;49.546;7.400;2022-11-15T12:04:38;2.00;;;1.80;;
68947;SDS011;55996;49.546;7.400;2022-11-15T12:09:43;1.90;;;1.30;;
68947;SDS011;55996;49.546;7.400;2022-11-15T12:15:20;1.70;;;1.60;;
68947;SDS011;55996;49.546;7.400;2022-11-15T12:17:49;1.60;;;1.50;;
68947;SDS011;55996;49.546;7.400;2022-11-15T12:20:25;1.40;;;1.27;;
68947;SDS011;55996;49.546;7.400;2022-11-15T12:28:37;1.97;;;1.50;;
68947;SDS011;55996;49.546;7.400;2022-11-15T12:33:58;9.00;;;2.17;;
68947;SDS011;55996;49.546;7.400;2022-11-15T12:38:53;1.90;;;1.40;;
68947;SDS011;55996;49.546;7.400;2022-11-15T12:41:30;2.83;;;1.60;;
68947;SDS011;55996;49.546;7.400;2022-11-15T12:44:00;1.43;;;1.33;;
68947;SDS011;55996;49.546;7.400;2022-11-15T13:02:20;2.60;;;1.30;;
68947;SDS011;55996;49.546;7.400;2022-11-15T13:04:49;1.80;;;1.57;;
68947;SDS011;55996;49.546;7.400;2022-11-15T13:10:00;4.43;;;1.50;;
68947;SDS011;55996;49.546;7.400;2022-11-15T13:17:43;2.80;;;1.50;;
68947;SDS011;55996;49.546;7.400;2022-11-15T13:28:01;1.90;;;1.20;;
68947;SDS011;55996;49.546;7.400;2022-11-15T13:30:35;8.00;;;2.20;;
68947;SDS011;55996;49.546;7.400;2022-11-15T13:33:07;18.07;;;3.93;;
68947;SDS011;55996;49.546;7.400;2022-11-15T13:35:38;5.07;;;1.93;;
68947;SDS011;55996;49.546;7.400;2022-11-15T13:38:05;2.87;;;2.10;;
68947;SDS011;55996;49.546;7.400;2022-11-15T13:40:34;3.73;;;1.83;;
68947;SDS011;55996;49.546;7.400;2022-11-15T13:43:17;1.50;;;1.40;;
68947;SDS011;55996;49.546;7.400;2022-11-15T13:46:12;2.33;;;1.77;;
68947;SDS011;55996;49.546;7.400;2022-11-15T13:48:39;2.77;;;1.53;;
68947;SDS011;55996;49.546;7.400;2022-11-15T13:56:54;2.87;;;1.70;;
68947;SDS011;55996;49.546;7.400;2022-11-15T13:59:27;3.63;;;2.03;;
68947;SDS011;55996;49.546;7.400;2022-11-15T14:01:56;3.07;;;1.70;;
68947;SDS011;55996;49.546;7.400;2022-11-15T14:04:25;2.53;;;1.40;;
68947;SDS011;55996;49.546;7.400;2022-11-15T14:06:57;1.60;;;1.47;;
68947;SDS011;55996;49.546;7.400;2022-11-15T14:14:52;2.23;;;1.40;;
68947;SDS011;55996;49.546;7.400;2022-11-15T14:19:56;1.77;;;1.43;;
68947;SDS011;55996;49.546;7.400;2022-11-15T14:22:23;4.10;;;1.60;;
68947;SDS011;55996;49.546;7.400;2022-11-15T14:27:43;3.60;;;1.57;;
68947;SDS011;55996;49.546;7.400;2022-11-15T14:30:29;1.53;;;1.43;;
68947;SDS011;55996;49.546;7.400;2022-11-15T14:32:54;1.90;;;1.80;;
68947;SDS011;55996;49.546;7.400;2022-11-15T14:35:21;4.83;;;1.53;;
68947;SDS011;55996;49.546;7.400;2022-11-15T14:37:48;1.70;;;1.40;;
68947;SDS011;55996;49.546;7.400;2022-11-15T14:40:21;2.30;;;1.50;;
68947;SDS011;55996;49.546;7.400;2022-11-15T14:42:47;1.73;;;1.53;;
68947;SDS011;55996;49.546;7.400;2022-11-15T14:45:15;1.90;;;1.40;;
68947;SDS011;55996;49.546;7.400;2022-11-15T14:47:45;1.50;;;1.40;;
68947;SDS011;55996;49.546;7.400;2022-11-15T14:50:15;1.50;;;1.40;;
68947;SDS011;55996;49.546;7.400;2022-11-15T14:52:43;1.30;;;1.20;;
68947;SDS011;55996;49.546;7.400;2022-11-15T14:55:19;2.93;;;1.43;;
68947;SDS011;55996;49.546;7.400;2022-11-15T14:57:45;1.40;;;1.30;;
68947;SDS011;55996;49.546;7.400;2022-11-15T15:00:12;4.60;;;1.77;;
68947;SDS011;55996;49.546;7.400;2022-11-15T15:02:38;1.33;;;1.23;;
68947;SDS011;55996;49.546;7.400;2022-11-15T15:05:48;2.40;;;1.47;;
68947;SDS011;55996;49.546;7.400;2022-11-15T15:08:05;3.53;;;1.40;;
68947;SDS011;55996;49.546;7.400;2022-11-15T15:10:32;1.47;;;1.30;;
68947;SDS011;55996;49.546;7.400;2022-11-15T15:12:59;1.60;;;1.50;;
68947;SDS011;55996;49.546;7.400;2022-11-15T15:15:26;1.87;;;1.50;;
68947;SDS011;55996;49.546;7.400;2022-11-15T15:17:56;2.20;;;1.60;;
68947;SDS011;55996;49.546;7.400;2022-11-15T15:20:22;2.53;;;1.60;;
68947;SDS011;55996;49.546;7.400;2022-11-15T15:22:47;2.00;;;1.60;;
68947;SDS011;55996;49.546;7.400;2022-11-15T15:25:19;1.40;;;1.30;;
68947;SDS011;55996;49.546;7.400;2022-11-15T15:27:45;1.90;;;1.70;;
68947;SDS011;55996;49.546;7.400;2022-11-15T15:30:10;1.73;;;1.50;;
68947;SDS011;55996;49.546;7.400;2022-11-15T15:32:36;1.50;;;1.30;;
68947;SDS011;55996;49.546;7.400;2022-11-15T15:35:02;3.67;;;1.40;;
68947;SDS011;55996;49.546;7.400;2022-11-15T15:37:27;1.67;;;1.40;;
68947;SDS011;55996;49.546;7.400;2022-11-15T15:39:55;1.43;;;1.33;;
68947;SDS011;55996;49.546;7.400;2022-11-15T15:42:22;2.37;;;1.50;;
68947;SDS011;55996;49.546;7.400;2022-11-15T15:44:48;3.07;;;1.57;;
68947;SDS011;55996;49.546;7.400;2022-11-15T15:47:21;2.37;;;1.53;;
68947;SDS011;55996;49.546;7.400;2022-11-15T15:49:48;1.77;;;1.67;;
68947;SDS011;55996;49.546;7.400;2022-11-15T15:52:16;2.37;;;1.43;;
68947;SDS011;55996;49.546;7.400;2022-11-15T15:54:42;1.53;;;1.43;;
68947;SDS011;55996;49.546;7.400;2022-11-15T15:57:08;1.37;;;1.27;;
68947;SDS011;55996;49.546;7.400;2022-11-15T15:59:36;2.97;;;1.80;;
68947;SDS011;55996;49.546;7.400;2022-11-15T16:02:02;2.63;;;2.43;;
68947;SDS011;55996;49.546;7.400;2022-11-15T16:04:28;2.77;;;1.80;;
68947;SDS011;55996;49.546;7.400;2022-11-15T16:06:57;2.93;;;2.00;;
68947;SDS011;55996;49.546;7.400;2022-11-15T16:09:24;2.47;;;1.67;;
68947;SDS011;55996;49.546;7.400;2022-11-15T16:12:09;1.60;;;1.50;;
68947;SDS011;55996;49.546;7.400;2022-11-15T16:14:35;2.70;;;1.90;;
68947;SDS011;55996;49.546;7.400;2022-11-15T16:17:00;2.57;;;1.73;;
68947;SDS011;55996;49.546;7.400;2022-11-15T16:19:26;2.90;;;2.00;;
68947;SDS011;55996;49.546;7.400;2022-11-15T16:21:51;2.67;;;1.70;;
68947;SDS011;55996;49.546;7.400;2022-11-15T16:24:17;2.37;;;1.63;;
68947;SDS011;55996;49.546;7.400;2022-11-15T16:26:43;2.97;;;1.57;;
68947;SDS011;55996;49.546;7.400;2022-11-15T16:29:10;2.00;;;1.60;;
68947;SDS011;55996;49.546;7.400;2022-11-15T16:31:35;2.33;;;1.37;;
68947;SDS011;55996;49.546;7.400;2022-11-15T16:34:01;1.37;;;1.27;;
68947;SDS011;55996;49.546;7.400;2022-11-15T16:36:27;4.20;;;1.63;;
68947;SDS011;55996;49.546;7.400;2022-11-15T16:38:56;2.87;;;1.90;;
68947;SDS011;55996;49.546;7.400;2022-11-15T16:41:21;3.97;;;1.90;;
68947;SDS011;55996;49.546;7.400;2022-11-15T16:43:50;1.63;;;1.53;;
68947;SDS011;55996;49.546;7.400;2022-11-15T16:46:23;2.13;;;1.33;;
68947;SDS011;55996;49.546;7.400;2022-11-15T16:48:50;2.87;;;1.60;;
68947;SDS011;55996;49.546;7.400;2022-11-15T16:51:16;1.60;;;1.50;;
68947;SDS011;55996;49.546;7.400;2022-11-15T16:53:42;2.00;;;1.83;;
68947;SDS011;55996;49.546;7.400;2022-11-15T16:58:51;1.50;;;1.40;;
68947;SDS011;55996;49.546;7.400;2022-11-15T17:01:39;2.17;;;1.80;;
68947;SDS011;55996;49.546;7.400;2022-11-15T17:04:11;3.43;;;1.63;;
68947;SDS011;55996;49.546;7.400;2022-11-15T17:06:40;2.40;;;1.57;;
68947;SDS011;55996;49.546;7.400;2022-11-15T17:09:10;4.07;;;1.80;;
68947;SDS011;55996;49.546;7.400;2022-11-15T17:11:39;1.80;;;1.60;;
68947;SDS011;55996;49.546;7.400;2022-11-15T17:14:05;2.97;;;2.00;;
68947;SDS011;55996;49.546;7.400;2022-11-15T17:16:31;6.90;;;2.50;;
68947;SDS011;55996;49.546;7.400;2022-11-15T17:18:58;2.90;;;2.60;;
68947;SDS011;55996;49.546;7.400;2022-11-15T17:21:23;2.63;;;2.43;;
68947;SDS011;55996;49.546;7.400;2022-11-15T17:23:52;4.47;;;2.90;;
68947;SDS011;55996;49.546;7.400;2022-11-15T17:26:18;3.17;;;2.87;;
68947;SDS011;55996;49.546;7.400;2022-11-15T17:28:44;3.73;;;3.27;;
68947;SDS011;55996;49.546;7.400;2022-11-15T17:31:10;5.60;;;3.67;;
68947;SDS011;55996;49.546;7.400;2022-11-15T17:33:37;3.93;;;3.30;;
68947;SDS011;55996;49.546;7.400;2022-11-15T17:36:04;3.90;;;3.50;;
68947;SDS011;55996;49.546;7.400;2022-11-15T17:38:31;8.10;;;3.67;;
68947;SDS011;55996;49.546;7.400;2022-11-15T17:41:01;3.87;;;2.93;;
68947;SDS011;55996;49.546;7.400;2022-11-15T17:43:32;3.23;;;2.70;;
68947;SDS011;55996;49.546;7.400;2022-11-15T17:45:58;3.27;;;2.67;;
68947;SDS011;55996;49.546;7.400;2022-11-15T17:48:28;4.17;;;3.77;;
68947;SDS011;55996;49.546;7.400;2022-11-15T17:50:57;5.47;;;3.50;;
68947;SDS011;55996;49.546;7.400;2022-11-15T17:53:25;4.23;;;3.07;;
68947;SDS011;55996;49.546;7.400;2022-11-15T17:55:51;3.20;;;2.90;;
68947;SDS011;55996;49.546;7.400;2022-11-15T17:58:18;4.63;;;3.03;;
68947;SDS011;55996;49.546;7.400;2022-11-15T18:00:47;6.43;;;3.30;;
68947;SDS011;55996;49.546;7.400;2022-11-15T18:03:12;6.27;;;3.10;;
68947;SDS011;55996;49.546;7.400;2022-11-15T18:05:39;4.27;;;2.90;;
68947;SDS011;55996;49.546;7.400;2022-11-15T18:08:08;2.97;;;2.60;;
68947;SDS011;55996;49.546;7.400;2022-11-15T18:10:40;2.73;;;2.53;;
68947;SDS011;55996;49.546;7.400;2022-11-15T18:13:06;3.50;;;2.30;;
68947;SDS011;55996;49.546;7.400;2022-11-15T18:15:34;4.17;;;2.33;;
68947;SDS011;55996;49.546;7.400;2022-11-15T18:17:59;2.33;;;2.13;;
68947;SDS011;55996;49.546;7.400;2022-11-15T18:20:25;3.00;;;2.30;;
68947;SDS011;55996;49.546;7.400;2022-11-15T18:22:53;3.27;;;2.53;;
68947;SDS011;55996;49.546;7.400;2022-11-15T18:25:19;2.40;;;2.20;;
68947;SDS011;55996;49.546;7.400;2022-11-15T18:27:44;5.00;;;2.20;;
68947;SDS011;55996;49.546;7.400;2022-11-15T18:30:10;2.57;;;1.90;;
68947;SDS011;55996;49.546;7.400;2022-11-15T18:32:36;2.40;;;2.10;;
68947;SDS011;55996;49.546;7.400;2022-11-15T18:35:01;2.10;;;1.90;;
68947;SDS011;55996;49.546;7.400;2022-11-15T18:37:26;3.50;;;2.40;;
68947;SDS011;55996;49.546;7.400;2022-11-15T18:39:52;3.20;;;2.20;;
68947;SDS011;55996;49.546;7.400;2022-11-15T18:42:17;2.37;;;2.07;;
68947;SDS011;55996;49.546;7.400;2022-11-15T18:44:43;2.87;;;2.50;;
68947;SDS011;55996;49.546;7.400;2022-11-15T18:47:08;5.13;;;2.63;;
68947;SDS011;55996;49.546;7.400;2022-11-15T18:49:34;4.80;;;3.50;;
68947;SDS011;55996;49.546;7.400;2022-11-15T18:51:59;5.43;;;4.13;;
68947;SDS011;55996;49.546;7.400;2022-11-15T18:54:24;6.07;;;4.23;;
68947;SDS011;55996;49.546;7.400;2022-11-15T18:56:50;7.50;;;3.90;;
68947;SDS011;55996;49.546;7.400;2022-11-15T18:59:15;3.80;;;2.93;;
68947;SDS011;55996;49.546;7.400;2022-11-15T19:01:42;4.13;;;2.63;;
68947;SDS011;55996;49.546;7.400;2022-11-15T19:04:12;3.40;;;2.53;;
68947;SDS011;55996;49.546;7.400;2022-11-15T19:06:41;4.47;;;2.70;;
68947;SDS011;55996;49.546;7.400;2022-11-15T19:09:10;3.70;;;2.43;;
68947;SDS011;55996;49.546;7.400;2022-11-15T19:11:38;2.60;;;2.40;;
68947;SDS011;55996;49.546;7.400;2022-11-15T19:14:05;4.23;;;2.73;;
68947;SDS011;55996;49.546;7.400;2022-11-15T19:16:34;6.40;;;2.57;;
68947;SDS011;55996;49.546;7.400;2022-11-15T19:19:05;5.20;;;3.03;;
68947;SDS011;55996;49.546;7.400;2022-11-15T19:21:37;5.40;;;3.97;;